createdAt,value
2023-05-27T00:00:50.641Z,13.18
2023-05-27T00:03:18.543Z,14.94
2023-05-27T00:05:45.732Z,14.72
2023-05-27T00:08:13.601Z,14.45
2023-05-27T00:10:40.778Z,13.48
2023-05-27T00:13:08.112Z,14.46
2023-05-27T00:15:35.314Z,14.79
2023-05-27T00:18:03.685Z,14.75
2023-05-27T00:20:33.928Z,14.67
2023-05-27T00:23:01.488Z,14.37
2023-05-27T00:25:28.844Z,14.48
2023-05-27T00:27:57.212Z,14.45
2023-05-27T00:30:24.615Z,14.39
2023-05-27T00:32:52.095Z,14.10
2023-05-27T00:35:19.454Z,14.55
2023-05-27T00:37:46.827Z,13.53
2023-05-27T00:40:16.694Z,14.66
2023-05-27T00:42:46.632Z,14.19
2023-05-27T00:45:15.758Z,14.21
2023-05-27T00:47:43.652Z,14.47
2023-05-27T00:50:11.123Z,14.34
2023-05-27T00:52:38.668Z,14.51
2023-05-27T00:55:08.006Z,13.21
2023-05-27T00:57:35.702Z,14.55
2023-05-27T01:00:08.265Z,13.96
2023-05-27T01:02:36.130Z,14.65
2023-05-27T01:05:03.478Z,14.33
2023-05-27T01:08:03.273Z,14.70
2023-05-27T01:10:33.423Z,14.76
2023-05-27T01:13:14.287Z,14.34
2023-05-27T01:15:42.527Z,14.53
2023-05-27T01:18:13.212Z,14.28
2023-05-27T01:20:42.852Z,14.67
2023-05-27T01:23:10.961Z,14.28
2023-05-27T01:25:38.692Z,14.07
2023-05-27T01:28:06.134Z,14.19
2023-05-27T01:30:33.296Z,14.65
2023-05-27T01:33:09.460Z,13.85
2023-05-27T01:35:44.462Z,14.75
2023-05-27T01:38:17.488Z,14.60
2023-05-27T01:40:46.175Z,14.57
2023-05-27T01:43:16.458Z,14.41
2023-05-27T01:45:44.455Z,14.42
2023-05-27T01:48:11.930Z,14.63
2023-05-27T01:50:39.372Z,14.64
2023-05-27T01:53:07.154Z,14.51
2023-05-27T01:55:34.815Z,14.71
2023-05-27T01:58:02.279Z,13.26
2023-05-27T02:00:29.728Z,14.72
2023-05-27T02:02:57.213Z,13.68
2023-05-27T02:05:24.979Z,14.38
2023-05-27T02:07:52.839Z,14.68
2023-05-27T02:10:20.073Z,14.01
2023-05-27T02:12:49.398Z,14.68
2023-05-27T02:15:16.968Z,13.99
2023-05-27T02:17:52.404Z,14.42
2023-05-27T02:20:19.806Z,14.14
2023-05-27T02:22:47.103Z,14.33
2023-05-27T02:25:14.404Z,12.72
2023-05-27T02:27:43.296Z,13.38
2023-05-27T02:30:12.266Z,13.51
2023-05-27T02:32:39.656Z,14.41
2023-05-27T02:35:07.313Z,13.97
2023-05-27T02:37:34.764Z,13.86
2023-05-27T02:40:02.046Z,14.19
2023-05-27T02:42:29.430Z,14.33
2023-05-27T02:44:56.700Z,14.50
2023-05-27T02:47:24.157Z,14.51
2023-05-27T02:49:51.513Z,14.49
2023-05-27T02:52:19.070Z,14.47
2023-05-27T02:54:46.275Z,13.46
2023-05-27T02:57:13.554Z,14.05
2023-05-27T02:59:41.124Z,14.33
2023-05-27T03:02:08.277Z,14.50
2023-05-27T03:04:36.401Z,14.29
2023-05-27T03:07:03.614Z,14.53
2023-05-27T03:09:30.967Z,13.81
2023-05-27T03:11:58.885Z,14.50
2023-05-27T03:14:26.386Z,14.44
2023-05-27T03:16:55.671Z,14.55
2023-05-27T03:19:25.835Z,14.55
2023-05-27T03:21:53.512Z,14.60
2023-05-27T03:24:21.203Z,14.05
2023-05-27T03:26:48.534Z,14.29
2023-05-27T03:29:17.146Z,14.27
2023-05-27T03:31:44.392Z,13.86
2023-05-27T03:34:15.738Z,13.18
2023-05-27T03:36:47.008Z,14.28
2023-05-27T03:39:16.490Z,14.47
2023-05-27T03:41:50.608Z,14.47
2023-05-27T03:44:18.372Z,14.24
2023-05-27T03:46:45.936Z,14.30
2023-05-27T03:49:14.406Z,14.18
2023-05-27T03:51:41.777Z,14.00
2023-05-27T03:54:09.063Z,13.24
2023-05-27T03:56:36.235Z,14.42
2023-05-27T03:59:03.657Z,13.37
2023-05-27T04:01:31.128Z,13.25
2023-05-27T04:03:58.610Z,13.80
2023-05-27T04:06:26.253Z,14.56
2023-05-27T04:08:53.533Z,14.19
2023-05-27T04:11:21.802Z,14.19
2023-05-27T04:13:51.846Z,14.27
2023-05-27T04:16:19.440Z,13.16
2023-05-27T04:18:50.134Z,13.34
2023-05-27T04:21:17.557Z,14.63
2023-05-27T04:23:44.907Z,14.38
2023-05-27T04:26:13.314Z,14.48
2023-05-27T04:28:46.749Z,13.17
2023-05-27T04:31:14.553Z,14.12
2023-05-27T04:33:49.300Z,14.45
2023-05-27T04:36:18.206Z,13.19
2023-05-27T04:38:57.202Z,14.27
2023-05-27T04:41:29.535Z,14.04
2023-05-27T04:44:29.491Z,14.37
2023-05-27T04:46:59.747Z,13.58
2023-05-27T04:49:31.575Z,13.32
2023-05-27T04:51:59.183Z,13.52
2023-05-27T04:54:26.814Z,13.82
2023-05-27T04:56:55.651Z,14.22
2023-05-27T04:59:46.994Z,13.87
2023-05-27T05:02:23.066Z,14.23
2023-05-27T05:05:16.694Z,14.03
2023-05-27T05:07:45.069Z,14.46
2023-05-27T05:10:19.975Z,14.10
2023-05-27T05:12:49.954Z,14.09
2023-05-27T05:15:17.412Z,13.69
2023-05-27T05:17:44.784Z,13.72
2023-05-27T05:20:13.602Z,14.62
2023-05-27T05:22:41.454Z,14.57
2023-05-27T05:25:09.973Z,14.57
2023-05-27T05:27:43.382Z,14.16
2023-05-27T05:30:12.853Z,14.10
2023-05-27T05:32:40.229Z,14.32
2023-05-27T05:35:09.137Z,13.64
2023-05-27T05:37:37.726Z,14.12
2023-05-27T05:40:05.512Z,14.02
2023-05-27T05:42:36.156Z,13.88
2023-05-27T05:45:03.869Z,14.59
2023-05-27T05:47:32.704Z,14.15
2023-05-27T05:50:08.951Z,14.05
2023-05-27T05:52:37.633Z,14.47
2023-05-27T05:55:07.189Z,14.63
2023-05-27T05:57:36.293Z,12.87
2023-05-27T06:00:06.587Z,14.37
2023-05-27T06:02:45.289Z,13.75
2023-05-27T06:05:23.478Z,13.59
2023-05-27T06:07:50.744Z,14.67
2023-05-27T06:10:18.544Z,14.78
2023-05-27T06:12:46.298Z,15.07
2023-05-27T06:15:13.654Z,14.99
2023-05-27T06:17:54.569Z,15.07
2023-05-27T06:20:21.873Z,13.72
2023-05-27T06:22:51.600Z,15.02
2023-05-27T06:25:37.127Z,14.64
2023-05-27T06:28:07.418Z,14.66
2023-05-27T06:30:35.434Z,14.78
2023-05-27T06:33:04.789Z,14.49
2023-05-27T06:35:33.547Z,14.81
2023-05-27T06:38:01.318Z,14.28
2023-05-27T06:40:28.872Z,15.23
2023-05-27T06:42:56.771Z,14.04
2023-05-27T06:46:02.400Z,15.41
2023-05-27T06:48:47.930Z,15.07
2023-05-27T06:51:16.690Z,14.22
2023-05-27T06:53:44.141Z,15.07
2023-05-27T06:56:15.284Z,13.79
2023-05-27T06:59:03.388Z,14.69
2023-05-27T07:01:32.781Z,15.16
2023-05-27T07:04:02.628Z,14.36
2023-05-27T07:07:08.576Z,15.09
2023-05-27T07:09:36.854Z,15.26
2023-05-27T07:12:04.626Z,15.35
2023-05-27T07:14:52.912Z,15.78
2023-05-27T07:17:23.781Z,14.47
2023-05-27T07:19:51.483Z,14.61
2023-05-27T07:22:21.116Z,14.94
2023-05-27T07:24:48.567Z,15.37
2023-05-27T07:27:15.804Z,15.41
2023-05-27T07:29:51.741Z,15.77
2023-05-27T07:32:37.683Z,15.62
2023-05-27T07:35:05.613Z,14.52
2023-05-27T07:37:32.875Z,15.17
2023-05-27T07:40:00.440Z,15.73
2023-05-27T07:42:31.866Z,15.54
2023-05-27T07:45:00.388Z,15.27
2023-05-27T07:47:27.867Z,15.52
2023-05-27T07:49:55.075Z,14.33
2023-05-27T07:52:45.411Z,15.48
2023-05-27T07:55:24.969Z,15.84
2023-05-27T07:57:52.185Z,15.44
2023-05-27T08:00:19.653Z,15.43
2023-05-27T08:02:55.984Z,15.50
2023-05-27T08:05:34.037Z,15.69
2023-05-27T08:08:13.183Z,15.33
2023-05-27T08:10:59.197Z,15.33
2023-05-27T08:13:46.641Z,14.29
2023-05-27T08:16:33.961Z,15.43
2023-05-27T08:19:23.444Z,15.19
2023-05-27T08:22:05.383Z,14.89
2023-05-27T08:24:52.768Z,15.58
2023-05-27T08:28:02.850Z,15.43
2023-05-27T08:30:47.966Z,15.34
2023-05-27T08:33:24.745Z,15.56
2023-05-27T08:35:52.592Z,15.52
2023-05-27T08:38:36.923Z,14.72
2023-05-27T08:41:17.874Z,15.55
2023-05-27T08:43:46.210Z,15.02
2023-05-27T08:46:15.306Z,14.17
2023-05-27T08:48:42.951Z,15.15
2023-05-27T08:51:11.139Z,15.09
2023-05-27T08:53:42.296Z,15.09
2023-05-27T08:56:13.914Z,14.74
2023-05-27T08:58:48.238Z,14.16
2023-05-27T09:01:24.926Z,15.06
2023-05-27T09:03:53.017Z,13.65
2023-05-27T09:06:20.278Z,14.73
2023-05-27T09:08:52.012Z,15.00
2023-05-27T09:11:27.683Z,15.13
2023-05-27T09:13:56.998Z,15.18
2023-05-27T09:16:28.498Z,15.13
2023-05-27T09:18:57.401Z,15.01
2023-05-27T09:21:27.994Z,14.30
2023-05-27T09:24:03.225Z,14.08
2023-05-27T09:26:31.146Z,15.03
2023-05-27T09:29:04.228Z,14.74
2023-05-27T09:31:32.242Z,15.15
2023-05-27T09:33:59.848Z,15.36
2023-05-27T09:36:29.848Z,14.80
2023-05-27T09:38:59.937Z,15.38
2023-05-27T09:41:28.492Z,15.11
2023-05-27T09:43:57.349Z,14.99
2023-05-27T09:46:26.567Z,14.51
2023-05-27T09:48:55.497Z,14.23
2023-05-27T09:51:25.154Z,15.20
2023-05-27T09:54:01.196Z,15.11
2023-05-27T09:56:29.634Z,14.84
2023-05-27T09:58:58.192Z,14.77
2023-05-27T10:01:29.779Z,14.49
2023-05-27T10:03:59.854Z,14.79
2023-05-27T10:06:28.885Z,14.73
2023-05-27T10:08:57.308Z,15.16
2023-05-27T10:11:30.035Z,14.77
2023-05-27T10:13:57.689Z,14.13
2023-05-27T10:16:28.929Z,13.99
2023-05-27T10:18:58.351Z,14.80
2023-05-27T10:21:29.304Z,13.71
2023-05-27T10:24:05.436Z,15.11
2023-05-27T10:26:34.557Z,14.49
2023-05-27T10:29:11.540Z,13.37
2023-05-27T10:31:53.727Z,14.87
2023-05-27T10:34:21.642Z,14.84
2023-05-27T10:37:01.241Z,15.02
2023-05-27T10:39:30.125Z,14.85
2023-05-27T10:41:58.910Z,15.00
2023-05-27T10:44:30.470Z,14.53
2023-05-27T10:47:11.994Z,14.96
2023-05-27T10:49:41.542Z,15.21
2023-05-27T10:52:32.803Z,14.98
2023-05-27T10:55:00.447Z,14.96
2023-05-27T10:57:31.877Z,14.93
2023-05-27T11:00:05.846Z,14.98
2023-05-27T11:02:33.956Z,15.29
2023-05-27T11:05:01.068Z,15.24
2023-05-27T11:07:28.269Z,14.82
2023-05-27T11:09:56.567Z,14.80
2023-05-27T11:12:25.381Z,14.87
2023-05-27T11:14:54.813Z,15.26
2023-05-27T11:17:22.647Z,14.72
2023-05-27T11:19:51.233Z,14.89
2023-05-27T11:22:20.489Z,15.24
2023-05-27T11:25:01.623Z,15.35
2023-05-27T11:27:36.939Z,15.13
2023-05-27T11:30:13.686Z,15.45
2023-05-27T11:32:45.736Z,15.30
2023-05-27T11:35:17.381Z,14.83
2023-05-27T11:37:51.714Z,14.39
2023-05-27T11:40:19.994Z,14.91
2023-05-27T11:42:47.963Z,15.41
2023-05-27T11:45:20.133Z,15.22
2023-05-27T11:47:56.678Z,15.46
2023-05-27T11:50:29.141Z,15.43
2023-05-27T11:52:58.339Z,14.31
2023-05-27T11:55:26.352Z,14.13
2023-05-27T11:57:53.955Z,12.88
2023-05-27T12:00:21.141Z,15.40
2023-05-27T12:02:49.755Z,15.09
2023-05-27T12:07:50.989Z,13.11
2023-05-27T12:10:18.393Z,14.58
2023-05-27T12:12:45.928Z,13.24
2023-05-27T12:15:13.217Z,15.59
2023-05-27T12:17:40.352Z,15.09
2023-05-27T12:20:20.198Z,15.67
2023-05-27T12:22:47.237Z,15.05
2023-05-27T12:25:14.392Z,15.78
2023-05-27T12:27:41.637Z,15.24
2023-05-27T12:30:09.479Z,15.73
2023-05-27T12:32:36.509Z,15.58
2023-05-27T12:35:03.735Z,15.91
2023-05-27T12:37:30.769Z,15.66
2023-05-27T12:40:00.589Z,15.11
2023-05-27T12:42:29.694Z,15.44
2023-05-27T12:44:56.935Z,15.99
2023-05-27T12:47:23.956Z,15.96
2023-05-27T12:49:52.282Z,16.06
2023-05-27T12:52:19.579Z,16.13
2023-05-27T12:54:46.632Z,16.19
2023-05-27T12:57:13.806Z,14.73
2023-05-27T12:59:42.864Z,16.23
2023-05-27T13:02:12.197Z,16.22
2023-05-27T13:04:40.722Z,15.77
2023-05-27T13:07:12.187Z,16.01
2023-05-27T13:09:41.044Z,15.95
2023-05-27T13:12:08.451Z,16.22
2023-05-27T13:14:35.656Z,16.00
2023-05-27T13:17:03.960Z,14.60
2023-05-27T13:19:31.296Z,14.99
2023-05-27T13:21:59.027Z,16.14
2023-05-27T13:24:26.234Z,14.99
2023-05-27T13:26:53.384Z,14.21
2023-05-27T13:29:20.711Z,16.00
2023-05-27T13:31:54.020Z,15.97
2023-05-27T13:34:21.554Z,15.79
2023-05-27T13:36:48.798Z,15.90
2023-05-27T13:39:16.153Z,16.27
2023-05-27T13:41:43.403Z,14.73
2023-05-27T13:44:11.968Z,16.46
2023-05-27T13:46:39.790Z,15.47
2023-05-27T13:49:07.427Z,16.55
2023-05-27T13:51:34.450Z,16.71
2023-05-27T13:54:01.930Z,15.53
2023-05-27T13:56:29.034Z,15.77
2023-05-27T13:58:56.363Z,15.93
2023-05-27T14:01:23.551Z,16.41
2023-05-27T14:03:51.135Z,16.62
2023-05-27T14:06:18.244Z,16.93
2023-05-27T14:08:45.622Z,16.10
2023-05-27T14:11:12.739Z,16.95
2023-05-27T14:13:39.812Z,16.68
2023-05-27T14:16:07.295Z,16.18
2023-05-27T14:18:35.430Z,16.95
2023-05-27T14:21:02.764Z,16.79
2023-05-27T14:23:30.040Z,17.37
2023-05-27T14:25:57.438Z,17.03
2023-05-27T14:28:24.509Z,17.22
2023-05-27T14:30:51.751Z,16.72
2023-05-27T14:33:18.937Z,17.38
2023-05-27T14:35:47.706Z,17.38
2023-05-27T14:38:18.380Z,16.00
2023-05-27T14:40:46.313Z,17.37
2023-05-27T14:43:13.672Z,17.55
2023-05-27T14:45:44.194Z,17.12
2023-05-27T14:48:11.766Z,17.60
2023-05-27T14:50:39.134Z,17.37
2023-05-27T14:53:07.629Z,17.01
2023-05-27T14:55:36.650Z,17.04
2023-05-27T14:58:08.006Z,17.33
2023-05-27T15:00:35.363Z,17.39
2023-05-27T15:03:03.036Z,17.01
2023-05-27T15:05:33.306Z,16.73
2023-05-27T15:08:00.552Z,16.70
2023-05-27T15:10:27.864Z,16.75
2023-05-27T15:12:55.178Z,17.82
2023-05-27T15:15:22.659Z,17.65
2023-05-27T15:17:54.760Z,17.72
2023-05-27T15:20:21.990Z,16.77
2023-05-27T15:22:49.297Z,17.73
2023-05-27T15:25:16.617Z,17.38
2023-05-27T15:27:43.981Z,16.71
2023-05-27T15:30:11.764Z,17.86
2023-05-27T15:32:39.064Z,17.06
2023-05-27T15:35:06.961Z,17.42
2023-05-27T15:37:35.970Z,16.65
2023-05-27T15:40:03.601Z,16.32
2023-05-27T15:42:31.964Z,17.36
2023-05-27T15:44:59.322Z,17.23
2023-05-27T15:47:27.093Z,15.76
2023-05-27T15:49:54.435Z,17.22
2023-05-27T15:52:21.773Z,16.08
2023-05-27T15:54:50.235Z,16.93
2023-05-27T15:57:17.739Z,17.00
2023-05-27T15:59:46.020Z,17.27
2023-05-27T16:02:13.317Z,17.03
2023-05-27T16:04:41.403Z,17.34
2023-05-27T16:07:08.777Z,16.86
2023-05-27T16:09:36.072Z,17.25
2023-05-27T16:12:03.664Z,16.78
2023-05-27T16:14:31.033Z,17.12
2023-05-27T16:16:58.279Z,17.29
2023-05-27T16:19:26.143Z,16.70
2023-05-27T16:21:53.583Z,15.82
2023-05-27T16:24:22.664Z,16.76
2023-05-27T16:26:49.870Z,15.77
2023-05-27T16:29:17.320Z,17.22
2023-05-27T16:31:44.738Z,17.08
2023-05-27T16:34:12.116Z,16.13
2023-05-27T16:36:39.361Z,15.97
2023-05-27T16:39:06.721Z,16.68
2023-05-27T16:41:33.985Z,16.63
2023-05-27T16:44:01.480Z,15.67
2023-05-27T16:46:28.886Z,16.63
2023-05-27T16:48:57.120Z,15.19
2023-05-27T16:51:24.793Z,16.48
2023-05-27T16:53:52.333Z,16.48
2023-05-27T16:56:19.666Z,16.39
2023-05-27T16:58:46.934Z,14.43
2023-05-27T17:01:14.427Z,15.44
2023-05-27T17:03:41.829Z,16.00
2023-05-27T17:06:09.111Z,15.57
2023-05-27T17:08:36.412Z,15.65
2023-05-27T17:11:04.315Z,16.07
2023-05-27T17:13:31.684Z,15.20
2023-05-27T17:15:59.193Z,16.46
2023-05-27T17:18:28.142Z,16.12
2023-05-27T17:20:56.119Z,16.27
2023-05-27T17:23:26.624Z,16.05
2023-05-27T17:25:53.913Z,16.38
2023-05-27T17:28:21.171Z,16.39
2023-05-27T17:30:48.427Z,15.91
2023-05-27T17:33:16.578Z,16.43
2023-05-27T17:35:43.847Z,15.89
2023-05-27T17:38:12.319Z,16.21
2023-05-27T17:40:39.591Z,15.84
2023-05-27T17:43:08.225Z,15.76
2023-05-27T17:45:35.391Z,16.38
2023-05-27T17:48:02.911Z,15.53
2023-05-27T17:50:30.798Z,16.05
2023-05-27T17:52:58.330Z,16.17
2023-05-27T17:55:25.558Z,16.07
2023-05-27T17:57:52.903Z,16.13
2023-05-27T18:00:20.228Z,15.78
2023-05-27T18:02:47.523Z,15.84
2023-05-27T18:05:14.861Z,16.00
2023-05-27T18:07:42.510Z,14.21
2023-05-27T18:10:11.399Z,15.91
2023-05-27T18:12:38.635Z,15.63
2023-05-27T18:15:07.736Z,15.54
2023-05-27T18:17:34.931Z,15.55
2023-05-27T18:20:02.324Z,15.07
2023-05-27T18:22:29.719Z,13.99
2023-05-27T18:24:59.493Z,15.25
2023-05-27T18:27:26.866Z,15.37
2023-05-27T18:29:54.223Z,15.02
2023-05-27T18:32:21.910Z,15.13
2023-05-27T18:34:49.267Z,15.50
2023-05-27T18:37:16.633Z,15.48
2023-05-27T18:39:43.880Z,15.12
2023-05-27T18:42:11.131Z,15.49
2023-05-27T18:44:38.380Z,15.11
2023-05-27T18:47:09.366Z,15.49
2023-05-27T18:49:36.499Z,15.53
2023-05-27T18:52:03.693Z,15.47
2023-05-27T18:54:30.912Z,15.10
2023-05-27T18:56:58.050Z,15.19
2023-05-27T18:59:25.456Z,14.26
2023-05-27T19:01:52.807Z,15.60
2023-05-27T19:04:20.317Z,15.11
2023-05-27T19:06:50.316Z,15.10
2023-05-27T19:09:17.530Z,15.25
2023-05-27T19:11:44.637Z,14.84
2023-05-27T19:14:11.759Z,15.47
2023-05-27T19:16:38.942Z,15.26
2023-05-27T19:19:06.985Z,15.07
2023-05-27T19:21:34.219Z,14.63
2023-05-27T19:24:01.681Z,15.64
2023-05-27T19:26:28.808Z,15.69
2023-05-27T19:28:58.115Z,15.60
2023-05-27T19:31:34.018Z,13.74
2023-05-27T19:34:01.248Z,15.63
2023-05-27T19:36:29.567Z,15.60
2023-05-27T19:38:56.834Z,14.57
2023-05-27T19:41:24.158Z,14.01
2023-05-27T19:43:51.440Z,14.63
2023-05-27T19:46:18.889Z,15.32
2023-05-27T19:48:46.167Z,15.07
2023-05-27T19:51:13.954Z,15.59
2023-05-27T19:53:46.164Z,15.05
2023-05-27T19:56:13.271Z,14.98
2023-05-27T19:58:40.576Z,15.15
2023-05-27T20:01:09.424Z,15.63
2023-05-27T20:03:36.900Z,15.70
2023-05-27T20:06:04.401Z,14.65
2023-05-27T20:08:31.609Z,15.04
2023-05-27T20:10:58.829Z,15.38
2023-05-27T20:13:26.063Z,15.21
2023-05-27T20:15:53.259Z,15.04
2023-05-27T20:18:20.727Z,15.46
2023-05-27T20:20:47.898Z,15.07
2023-05-27T20:23:15.052Z,15.30
2023-05-27T20:25:42.566Z,15.41
2023-05-27T20:28:10.793Z,15.20
2023-05-27T20:30:38.110Z,15.42
2023-05-27T20:33:07.994Z,14.14
2023-05-27T20:35:35.281Z,15.00
2023-05-27T20:38:02.537Z,15.05
2023-05-27T20:40:29.948Z,15.21
2023-05-27T20:43:00.066Z,14.58
2023-05-27T20:45:27.504Z,15.13
2023-05-27T20:47:54.808Z,13.83
2023-05-27T20:50:22.913Z,14.41
2023-05-27T20:52:50.125Z,14.73
2023-05-27T20:55:17.434Z,14.52
2023-05-27T20:57:44.812Z,14.43
2023-05-27T21:00:12.881Z,14.28
2023-05-27T21:02:40.231Z,14.78
2023-05-27T21:05:07.908Z,14.90
2023-05-27T21:07:35.079Z,14.51
2023-05-27T21:10:03.593Z,14.94
2023-05-27T21:12:30.897Z,14.62
2023-05-27T21:14:57.972Z,14.49
2023-05-27T21:17:25.084Z,14.95
2023-05-27T21:19:53.600Z,14.77
2023-05-27T21:22:23.494Z,14.75
2023-05-27T21:24:50.776Z,14.68
2023-05-27T21:27:17.924Z,14.99
2023-05-27T21:29:45.036Z,14.22
2023-05-27T21:32:12.309Z,14.97
2023-05-27T21:34:40.211Z,13.96
2023-05-27T21:37:07.642Z,14.78
2023-05-27T21:39:34.970Z,14.40
2023-05-27T21:42:02.902Z,14.89
2023-05-27T21:44:30.556Z,14.91
2023-05-27T21:46:57.811Z,14.40
2023-05-27T21:49:26.510Z,14.82
2023-05-27T21:51:53.667Z,14.85
2023-05-27T21:54:21.044Z,13.52
2023-05-27T21:56:48.307Z,14.15
2023-05-27T21:59:15.656Z,14.60
2023-05-27T22:01:43.107Z,14.56
2023-05-27T22:04:11.640Z,14.44
2023-05-27T22:06:51.293Z,14.43
2023-05-27T22:09:18.382Z,14.65
2023-05-27T22:11:45.822Z,14.76
2023-05-27T22:14:13.090Z,14.80
2023-05-27T22:16:40.166Z,14.20
2023-05-27T22:19:09.483Z,14.13
2023-05-27T22:21:36.692Z,14.36
2023-05-27T22:24:04.005Z,14.36
2023-05-27T22:26:31.110Z,14.66
2023-05-27T22:29:02.861Z,14.53
2023-05-27T22:31:30.985Z,14.65
2023-05-27T22:33:58.810Z,14.59
2023-05-27T22:36:26.032Z,14.26
2023-05-27T22:38:53.195Z,14.58
2023-05-27T22:41:21.241Z,14.02
2023-05-27T22:43:48.508Z,14.43
2023-05-27T22:46:18.208Z,13.99
2023-05-27T22:48:46.881Z,14.43
2023-05-27T22:51:16.020Z,14.42
2023-05-27T22:53:44.267Z,14.49
2023-05-27T22:56:15.703Z,12.92
2023-05-27T22:58:44.601Z,14.56
2023-05-27T23:01:12.869Z,13.75
2023-05-27T23:03:40.248Z,13.11
2023-05-27T23:06:08.536Z,14.12
2023-05-27T23:08:40.006Z,13.85
2023-05-27T23:11:07.265Z,14.29
2023-05-27T23:13:34.486Z,14.16
2023-05-27T23:16:09.323Z,13.89
2023-05-27T23:18:39.079Z,14.42
2023-05-27T23:21:08.010Z,12.58
2023-05-27T23:23:35.643Z,13.79
2023-05-27T23:26:02.870Z,13.18
2023-05-27T23:28:30.167Z,13.54
2023-05-27T23:30:58.506Z,14.35
2023-05-27T23:33:25.958Z,13.18
2023-05-27T23:35:54.263Z,14.23
2023-05-27T23:38:23.295Z,13.79
2023-05-27T23:40:51.637Z,13.75
2023-05-27T23:43:19.148Z,14.01
2023-05-27T23:45:46.259Z,13.97
2023-05-27T23:48:17.204Z,12.59
2023-05-27T23:50:44.315Z,13.08
2023-05-27T23:53:11.646Z,12.96
2023-05-27T23:55:39.451Z,11.87
2023-05-27T23:58:07.083Z,13.42
